Time;durP1;ratioP1;P1;durP2;ratioP2;P2;SDS_P1;SDS_P2;PMS_P1;PMS_P2;Temp;Humidity;BMP_temperature;BMP_pressure;BME280_temperature;BME280_humidity;BME280_pressure;Samples;Min_cycle;Max_cycle;Signal;HPM_P1;HPM_P2
2022/07/09 00:01:22;;;;;;;3.90;1.20;;;;;;;12.05;92.01;101033.16;84893;1327;22605;-72
2022/07/09 00:03:29;;;;;;;2.50;1.20;;;;;;;12.12;92.65;101038.20;84866;1323;22605;-70
2022/07/09 00:05:37;;;;;;;3.80;1.40;;;;;;;12.19;92.94;101041.62;84730;1326;23981;-71
2022/07/09 00:07:44;;;;;;;1.70;1.60;;;;;;;12.23;92.45;101039.20;84777;1326;22715;-71
2022/07/09 00:09:52;;;;;;;2.90;1.20;;;;;;;12.24;92.20;101042.30;84754;1322;25496;-71
2022/07/09 00:11:59;;;;;;;2.70;1.40;;;;;;;12.26;92.20;101045.40;84763;1326;22582;-71
2022/07/09 00:14:07;;;;;;;1.90;1.00;;;;;;;12.30;92.81;101048.23;84728;1326;22776;-71
2022/07/09 00:16:15;;;;;;;3.10;1.40;;;;;;;12.38;93.35;101044.45;84780;1324;25279;-71
2022/07/09 00:18:24;;;;;;;4.80;1.30;;;;;;;12.47;93.43;101045.38;84749;1326;22612;-71
2022/07/09 00:20:32;;;;;;;2.10;1.40;;;;;;;12.52;93.36;101044.84;84735;1325;25435;-71
2022/07/09 00:22:39;;;;;;;2.30;1.50;;;;;;;12.58;93.42;101041.14;84895;1323;22702;-71
2022/07/09 00:24:47;;;;;;;1.70;1.40;;;;;;;12.64;93.57;101040.40;84862;1327;25451;-71
2022/07/09 00:26:54;;;;;;;1.20;1.10;;;;;;;12.69;93.38;101042.34;84857;1326;22593;-72
2022/07/09 00:29:02;;;;;;;1.70;1.20;;;;;;;12.73;93.30;101041.11;84877;1326;22614;-71
2022/07/09 00:31:10;;;;;;;2.90;1.60;;;;;;;12.78;93.42;101039.17;84861;1326;25415;-73
2022/07/09 00:33:18;;;;;;;6.40;1.70;;;;;;;12.85;93.67;101035.44;84768;1327;22599;-71
2022/07/09 00:35:25;;;;;;;3.00;1.90;;;;;;;12.91;93.79;101035.71;84888;1326;24336;-71
2022/07/09 00:37:33;;;;;;;3.10;1.50;;;;;;;12.98;93.94;101033.91;84866;1327;23059;-72
2022/07/09 00:39:40;;;;;;;4.10;1.70;;;;;;;13.04;93.91;101033.67;84881;1326;22600;-72
2022/07/09 00:41:48;;;;;;;3.10;2.40;;;;;;;13.09;93.99;101032.27;84776;1326;22959;-70
2022/07/09 00:43:55;;;;;;;3.70;1.50;;;;;;;13.15;94.04;101032.40;84755;1325;22677;-72
2022/07/09 00:46:03;;;;;;;1.80;1.60;;;;;;;13.21;94.07;101033.41;84771;1321;22668;-72
2022/07/09 00:48:10;;;;;;;1.90;1.80;;;;;;;13.26;93.85;101033.39;84761;1322;23006;-72
2022/07/09 00:50:17;;;;;;;3.30;1.90;;;;;;;13.31;93.97;101029.52;84735;1322;22576;-72
2022/07/09 00:52:25;;;;;;;1.80;1.70;;;;;;;13.36;93.99;101024.42;84818;1326;22607;-71
2022/07/09 00:54:32;;;;;;;5.70;2.20;;;;;;;13.39;93.77;101026.58;84814;1325;22606;-72
2022/07/09 00:56:40;;;;;;;3.60;1.90;;;;;;;13.42;93.79;101025.73;84777;1325;22609;-72
2022/07/09 00:58:47;;;;;;;2.20;1.60;;;;;;;13.48;93.91;101023.27;84839;1328;22701;-72
2022/07/09 01:00:55;;;;;;;3.10;1.80;;;;;;;13.51;93.89;101022.26;84856;1326;22764;-71
2022/07/09 01:03:02;;;;;;;5.50;1.90;;;;;;;13.55;93.76;101022.12;84880;1324;22662;-72
2022/07/09 01:05:11;;;;;;;3.90;1.70;;;;;;;13.57;93.80;101020.41;84847;1326;22616;-72
2022/07/09 01:07:18;;;;;;;5.90;2.20;;;;;;;13.60;93.68;101019.61;84715;1326;22678;-72
2022/07/09 01:09:26;;;;;;;3.10;1.80;;;;;;;13.63;93.74;101018.42;84694;1322;22671;-71
2022/07/09 01:11:33;;;;;;;4.70;2.10;;;;;;;13.66;93.69;101019.71;84834;1326;22638;-71
2022/07/09 01:13:41;;;;;;;3.70;2.20;;;;;;;13.70;93.76;101020.09;84827;1326;22595;-70
2022/07/09 01:15:48;;;;;;;4.20;2.10;;;;;;;13.74;93.85;101021.86;84859;1326;22572;-72
2022/07/09 01:17:57;;;;;;;4.40;2.00;;;;;;;13.77;93.87;101021.38;84835;1327;22588;-71
2022/07/09 01:20:06;;;;;;;4.70;2.40;;;;;;;13.80;93.90;101016.00;84838;1326;24456;-72
2022/07/09 01:22:14;;;;;;;4.00;2.50;;;;;;;13.83;93.88;101014.10;84873;1329;25824;-71
2022/07/09 01:24:22;;;;;;;4.20;2.00;;;;;;;13.84;93.64;101013.02;84701;1326;22580;-71
2022/07/09 01:26:30;;;;;;;5.00;2.80;;;;;;;13.86;93.63;101012.42;84732;1327;24464;-71
2022/07/09 01:28:37;;;;;;;5.50;2.30;;;;;;;13.87;93.58;101005.88;84829;1327;26563;-71
2022/07/09 01:30:45;;;;;;;2.50;2.10;;;;;;;13.87;93.45;101004.28;84801;1326;22600;-71
2022/07/09 01:32:53;;;;;;;4.30;2.20;;;;;;;13.86;93.22;101004.88;84714;1326;22732;-71
2022/07/09 01:35:00;;;;;;;3.30;2.70;;;;;;;13.85;93.19;101008.10;84844;1328;25551;-71
2022/07/09 01:37:08;;;;;;;3.10;2.40;;;;;;;13.85;93.41;101006.16;84702;1326;25419;-73
2022/07/09 01:39:15;;;;;;;6.20;2.40;;;;;;;13.85;93.51;101003.33;84833;1326;22611;-71
2022/07/09 01:41:23;;;;;;;2.70;2.30;;;;;;;13.86;93.21;101002.94;84873;1326;22646;-71
2022/07/09 01:43:30;;;;;;;5.20;2.50;;;;;;;13.86;93.24;101000.30;84858;1324;25418;-72
2022/07/09 01:45:38;;;;;;;3.70;2.60;;;;;;;13.87;93.17;100999.89;84841;1323;22617;-71
2022/07/09 01:47:45;;;;;;;4.50;2.30;;;;;;;13.87;93.03;101001.50;84787;1318;25378;-71
2022/07/09 01:49:53;;;;;;;3.70;2.30;;;;;;;13.85;92.90;101004.20;84820;1322;22582;-71
2022/07/09 01:52:00;;;;;;;2.70;2.30;;;;;;;13.84;92.97;101002.84;84817;1324;22598;-70
2022/07/09 01:54:08;;;;;;;5.00;2.30;;;;;;;13.83;92.95;101002.73;84843;1327;22693;-71
2022/07/09 01:56:15;;;;;;;3.10;2.60;;;;;;;13.83;93.08;101006.55;84816;1326;22598;-71
2022/07/09 01:58:23;;;;;;;5.40;2.70;;;;;;;13.83;92.96;101004.84;84805;1326;22592;-72
2022/07/09 02:00:31;;;;;;;4.60;2.30;;;;;;;13.82;92.91;101006.23;84828;1322;22592;-72
2022/07/09 02:02:38;;;;;;;5.90;2.30;;;;;;;13.81;93.00;101006.14;84820;1322;22623;-72
2022/07/09 02:04:46;;;;;;;2.00;1.80;;;;;;;13.81;92.92;101011.05;84813;1326;22589;-72
2022/07/09 02:06:53;;;;;;;3.90;2.00;;;;;;;13.80;92.91;101006.70;84817;1326;22661;-72
2022/07/09 02:09:01;;;;;;;4.00;2.10;;;;;;;13.81;92.80;101005.45;84813;1326;25646;-72
2022/07/09 02:11:08;;;;;;;8.10;2.10;;;;;;;13.81;92.84;101006.86;84736;1326;25467;-71
2022/07/09 02:13:17;;;;;;;3.30;2.10;;;;;;;13.80;92.67;101002.85;84841;1330;22608;-71
2022/07/09 02:15:25;;;;;;;5.20;1.90;;;;;;;13.79;92.45;101002.21;84791;1327;22598;-72
2022/07/09 02:17:33;;;;;;;3.20;2.00;;;;;;;13.76;92.56;100997.92;84808;1327;22575;-72
2022/07/09 02:19:40;;;;;;;5.60;2.40;;;;;;;13.76;92.38;100997.39;84816;1327;22604;-72
2022/07/09 02:21:48;;;;;;;2.30;2.10;;;;;;;13.74;92.42;100996.25;84821;1327;25658;-72
2022/07/09 02:23:58;;;;;;;3.30;2.00;;;;;;;13.73;92.43;100997.34;84828;1326;24267;-71
2022/07/09 02:26:06;;;;;;;2.70;1.90;;;;;;;13.72;92.28;100995.81;84819;1326;22630;-71
2022/07/09 02:28:13;;;;;;;7.80;2.20;;;;;;;13.70;92.22;100999.39;84787;1326;25449;-72
2022/07/09 02:30:21;;;;;;;3.70;2.20;;;;;;;13.67;92.10;100996.86;84673;1326;22594;-71
2022/07/09 02:32:28;;;;;;;2.50;2.00;;;;;;;13.66;92.36;100996.76;84719;1326;22641;-71
2022/07/09 02:34:36;;;;;;;2.80;2.20;;;;;;;13.65;92.21;100994.52;84831;1324;22798;-72
2022/07/09 02:36:43;;;;;;;3.80;2.00;;;;;;;13.65;92.40;100994.34;84795;1326;25458;-72
2022/07/09 02:38:51;;;;;;;3.90;2.30;;;;;;;13.65;92.30;100992.59;84771;1326;25512;-72
2022/07/09 02:40:58;;;;;;;4.20;2.30;;;;;;;13.66;92.38;100991.86;84805;1321;24335;-72
2022/07/09 02:43:06;;;;;;;3.80;2.00;;;;;;;13.65;92.38;100992.57;84804;1326;22591;-72
2022/07/09 02:45:13;;;;;;;3.70;2.00;;;;;;;13.66;92.43;100994.80;84620;1327;234420;-72
2022/07/09 02:47:21;;;;;;;7.80;2.60;;;;;;;13.66;92.26;100995.52;84828;1324;22596;-71
2022/07/09 02:49:29;;;;;;;3.70;2.20;;;;;;;13.66;92.27;100993.59;84790;1326;25433;-71
2022/07/09 02:51:36;;;;;;;9.20;2.50;;;;;;;13.65;92.21;100992.91;84717;1327;22677;-71
2022/07/09 02:53:44;;;;;;;3.90;2.00;;;;;;;13.64;92.26;100997.55;84797;1326;25301;-71
2022/07/09 02:55:51;;;;;;;3.00;2.60;;;;;;;13.64;92.32;100996.31;84777;1326;22673;-72
2022/07/09 02:57:59;;;;;;;4.70;1.80;;;;;;;13.64;92.58;100994.20;84794;1324;22670;-71
2022/07/09 03:00:08;;;;;;;6.00;2.00;;;;;;;13.66;92.55;100998.66;84823;1326;22597;-72
2022/07/09 03:02:16;;;;;;;3.50;2.20;;;;;;;13.68;92.65;100995.45;84833;1330;25536;-71
2022/07/09 03:04:23;;;;;;;10.00;2.30;;;;;;;13.68;92.49;100999.29;84815;1322;23161;-71
2022/07/09 03:06:31;;;;;;;2.50;1.70;;;;;;;13.69;92.47;100989.96;84860;1329;22611;-71
2022/07/09 03:08:38;;;;;;;7.00;2.10;;;;;;;13.68;92.06;100988.42;84852;1321;22815;-71
2022/07/09 03:10:46;;;;;;;5.50;2.20;;;;;;;13.67;92.30;100988.10;84865;1321;25604;-72
2022/07/09 03:12:53;;;;;;;5.70;1.90;;;;;;;13.68;92.43;100985.78;84880;1325;22583;-72
2022/07/09 03:15:01;;;;;;;4.40;2.00;;;;;;;13.69;92.35;100979.80;84874;1322;24341;-72
2022/07/09 03:17:09;;;;;;;6.90;1.80;;;;;;;13.70;92.49;100981.86;84773;1326;22578;-72
2022/07/09 03:19:16;;;;;;;4.20;1.90;;;;;;;13.73;92.42;100980.35;84870;1326;22585;-72
2022/07/09 03:21:24;;;;;;;4.00;2.10;;;;;;;13.74;92.33;100979.42;84885;1326;26689;-72
2022/07/09 03:23:31;;;;;;;4.30;1.70;;;;;;;13.74;92.23;100978.38;84881;1321;22739;-72
2022/07/09 03:25:38;;;;;;;2.30;2.10;;;;;;;13.74;92.22;100978.02;84864;1327;22663;-71
2022/07/09 03:27:46;;;;;;;3.60;1.60;;;;;;;13.73;92.02;100972.11;84801;1326;22626;-71
2022/07/09 03:29:53;;;;;;;4.00;1.90;;;;;;;13.68;91.55;100973.16;84850;1321;22606;-71
2022/07/09 03:32:01;;;;;;;3.90;2.00;;;;;;;13.66;91.74;100977.11;84777;1326;22592;-71
2022/07/09 03:34:08;;;;;;;4.60;2.60;;;;;;;13.62;91.48;100980.95;84868;1326;22681;-71
2022/07/09 03:36:16;;;;;;;6.90;2.10;;;;;;;13.58;91.35;100981.82;84855;1326;25485;-71
2022/07/09 03:38:26;;;;;;;3.00;1.90;;;;;;;13.55;91.23;100986.17;84869;1327;22601;-73
2022/07/09 03:40:34;;;;;;;4.00;2.00;;;;;;;13.50;91.22;100987.56;84843;1321;24390;-71
2022/07/09 03:42:41;;;;;;;5.70;2.50;;;;;;;13.47;91.16;100982.98;84792;1326;22658;-71
2022/07/09 03:44:49;;;;;;;4.60;1.90;;;;;;;13.44;91.00;100987.13;84863;1326;22664;-72
2022/07/09 03:46:56;;;;;;;3.00;1.90;;;;;;;13.67;92.22;100984.27;84778;1323;24309;-71
2022/07/09 03:49:04;;;;;;;6.40;2.20;;;;;;;14.45;93.15;100985.70;84844;1328;25562;-72
2022/07/09 03:51:11;;;;;;;4.70;2.10;;;;;;;15.31;93.41;100982.77;84825;1318;24229;-71
2022/07/09 03:53:19;;;;;;;3.60;1.70;;;;;;;16.19;93.41;100978.96;84829;1318;22674;-72
2022/07/09 03:55:26;;;;;;;4.40;1.90;;;;;;;17.03;92.26;100972.34;84821;1322;22638;-70
2022/07/09 03:57:34;;;;;;;2.50;1.70;;;;;;;17.89;90.23;100973.16;84820;1327;22665;-71
2022/07/09 03:59:41;;;;;;;4.50;2.70;;;;;;;18.72;87.10;100973.79;84818;1329;22727;-72
2022/07/09 04:01:48;;;;;;;4.10;2.50;;;;;;;19.52;84.15;100967.23;84813;1324;22586;-72
2022/07/09 04:03:56;;;;;;;3.40;1.80;;;;;;;20.32;80.45;100965.20;84871;1325;24465;-72
2022/07/09 04:06:04;;;;;;;2.10;1.30;;;;;;;21.04;76.50;100962.61;84853;1327;22768;-72
2022/07/09 04:08:11;;;;;;;2.80;1.30;;;;;;;21.55;72.55;100961.23;84869;1325;22621;-72
2022/07/09 04:10:19;;;;;;;1.50;1.20;;;;;;;22.10;70.09;100960.98;84893;1326;22580;-72
2022/07/09 04:12:26;;;;;;;3.20;1.50;;;;;;;22.69;68.14;100960.11;84873;1324;22732;-72
2022/07/09 04:14:34;;;;;;;3.60;1.50;;;;;;;23.28;64.82;100954.28;84869;1321;22587;-72
2022/07/09 04:16:41;;;;;;;2.80;1.40;;;;;;;23.82;62.29;100956.75;84862;1325;25632;-72
2022/07/09 04:18:49;;;;;;;2.60;1.20;;;;;;;24.23;59.74;100955.89;84750;1325;25301;-72
2022/07/09 04:20:57;;;;;;;5.00;1.50;;;;;;;24.59;58.72;100953.20;84872;1322;22591;-72
2022/07/09 04:23:04;;;;;;;2.50;1.50;;;;;;;25.11;57.23;100951.07;84866;1318;25012;-73
2022/07/09 04:25:12;;;;;;;3.60;1.50;;;;;;;25.59;55.30;100948.11;84881;1322;22601;-72
2022/07/09 04:27:20;;;;;;;4.40;1.50;;;;;;;25.98;53.31;100949.20;84807;1324;22600;-72
2022/07/09 04:29:27;;;;;;;4.00;1.60;;;;;;;26.33;51.56;100948.35;84873;1322;22641;-72
2022/07/09 04:31:35;;;;;;;3.60;1.40;;;;;;;26.33;49.60;100945.30;84854;1324;22731;-72
2022/07/09 04:33:45;;;;;;;6.70;1.30;;;;;;;25.99;49.43;100936.92;84869;1326;25374;-72
2022/07/09 04:35:53;;;;;;;5.90;1.30;;;;;;;25.80;49.33;100935.46;84785;1321;22857;-73
2022/07/09 04:38:00;;;;;;;1.70;1.30;;;;;;;25.63;49.96;100932.36;84887;1321;22581;-72
2022/07/09 04:40:10;;;;;;;4.10;1.40;;;;;;;25.29;50.34;100933.23;84867;1326;22600;-73
2022/07/09 04:42:19;;;;;;;4.60;1.50;;;;;;;24.75;51.20;100935.01;84864;1326;22671;-72
2022/07/09 04:44:26;;;;;;;6.30;1.30;;;;;;;24.24;52.43;100938.16;84892;1327;22587;-72
2022/07/09 04:46:34;;;;;;;3.90;2.20;;;;;;;23.99;53.62;100938.24;84894;1325;22599;-72
2022/07/09 04:48:41;;;;;;;3.20;1.60;;;;;;;24.00;53.75;100941.68;84875;1325;25467;-72
2022/07/09 04:50:49;;;;;;;4.20;1.50;;;;;;;23.60;53.77;100943.42;84882;1325;22652;-72
2022/07/09 04:52:56;;;;;;;1.50;1.20;;;;;;;23.20;54.21;100949.63;84869;1327;22645;-72
2022/07/09 04:55:04;;;;;;;3.10;1.70;;;;;;;22.78;54.96;100956.88;84898;1325;22586;-72
2022/07/09 04:57:12;;;;;;;5.50;2.20;;;;;;;22.60;56.29;100955.63;84852;1327;24398;-72
2022/07/09 04:59:20;;;;;;;6.10;1.40;;;;;;;23.24;56.99;100954.61;84897;1326;22606;-72
2022/07/09 05:01:29;;;;;;;1.80;1.20;;;;;;;23.72;55.69;100954.55;84876;1326;22643;-72
2022/07/09 05:03:37;;;;;;;4.10;1.30;;;;;;;23.67;54.88;100953.73;84899;1326;24361;-72
2022/07/09 05:05:44;;;;;;;3.60;1.50;;;;;;;23.48;54.75;100951.91;84869;1326;22619;-72
2022/07/09 05:07:52;;;;;;;1.90;1.40;;;;;;;23.20;55.29;100948.36;84867;1326;24433;-72
2022/07/09 05:10:00;;;;;;;2.20;1.20;;;;;;;22.91;55.55;100946.81;84861;1325;22650;-72
2022/07/09 05:12:10;;;;;;;3.80;1.50;;;;;;;22.84;56.15;100949.62;84855;1312;22699;-72
2022/07/09 05:14:17;;;;;;;2.50;1.20;;;;;;;22.92;57.00;100950.98;84887;1323;22624;-72
2022/07/09 05:16:25;;;;;;;3.90;1.30;;;;;;;23.05;56.54;100944.05;84876;1324;22635;-73
2022/07/09 05:18:32;;;;;;;4.70;1.70;;;;;;;23.31;56.39;100943.67;84897;1329;23671;-73
2022/07/09 05:20:42;;;;;;;3.30;1.40;;;;;;;23.61;57.01;100946.51;84883;1327;22641;-73
2022/07/09 05:22:49;;;;;;;6.40;1.80;;;;;;;24.06;55.18;100943.66;84918;1327;24590;-72
2022/07/09 05:24:57;;;;;;;2.50;1.30;;;;;;;24.73;54.68;100941.39;84908;1326;22585;-73
2022/07/09 05:27:05;;;;;;;2.00;1.10;;;;;;;25.54;52.96;100936.79;84805;1326;22573;-72
2022/07/09 05:29:13;;;;;;;3.30;1.50;;;;;;;26.46;50.72;100940.12;84857;1322;22585;-72
2022/07/09 05:31:20;;;;;;;4.30;2.60;;;;;;;27.17;48.75;100937.38;84880;1318;22702;-72
2022/07/09 05:33:28;;;;;;;3.00;1.50;;;;;;;27.55;47.10;100940.05;84881;1318;22660;-73
2022/07/09 05:35:35;;;;;;;7.10;2.00;;;;;;;27.93;46.24;100937.29;84905;1312;22635;-72
2022/07/09 05:37:46;;;;;;;3.60;1.20;;;;;;;28.24;44.69;100935.44;84898;1321;22589;-73
2022/07/09 05:39:53;;;;;;;3.40;1.70;;;;;;;28.84;43.41;100928.78;84834;1326;22610;-72
2022/07/09 05:42:01;;;;;;;9.50;2.70;;;;;;;29.29;42.75;100927.74;84876;1324;22672;-72
2022/07/09 05:44:08;;;;;;;4.10;1.60;;;;;;;29.38;42.48;100928.39;84888;1325;25441;-73
2022/07/09 05:46:16;;;;;;;3.10;1.60;;;;;;;29.67;41.56;100930.27;84816;1326;22655;-73
2022/07/09 05:48:23;;;;;;;5.70;1.20;;;;;;;30.01;40.64;100931.06;84918;1324;25406;-73
2022/07/09 05:50:31;;;;;;;3.40;1.20;;;;;;;30.19;40.06;100933.93;84900;1325;22656;-73
2022/07/09 05:52:38;;;;;;;9.80;1.40;;;;;;;30.36;40.14;100926.39;84898;1323;24443;-73
2022/07/09 05:54:46;;;;;;;4.20;1.60;;;;;;;30.37;39.42;100930.08;84878;1324;22620;-73
2022/07/09 05:56:53;;;;;;;3.00;1.00;;;;;;;30.43;39.33;100930.52;84887;1326;22700;-73
2022/07/09 05:59:02;;;;;;;3.10;1.40;;;;;;;30.99;39.33;100929.48;84909;1325;22613;-73
2022/07/09 06:01:09;;;;;;;2.90;1.00;;;;;;;31.27;38.72;100924.34;84897;1321;22665;-73
2022/07/09 06:03:17;;;;;;;2.40;1.10;;;;;;;31.58;38.17;100926.52;84797;1321;22582;-73
2022/07/09 06:05:25;;;;;;;2.90;1.10;;;;;;;31.06;37.62;100919.44;84779;1326;22590;-73
2022/07/09 06:07:32;;;;;;;4.50;1.40;;;;;;;30.11;37.87;100920.93;84764;1327;22587;-73
2022/07/09 06:09:40;;;;;;;3.10;0.90;;;;;;;29.22;38.72;100916.83;84756;1325;22642;-73
2022/07/09 06:11:47;;;;;;;1.40;0.90;;;;;;;28.34;40.13;100916.80;84732;1326;22613;-73
2022/07/09 06:13:54;;;;;;;1.50;1.10;;;;;;;27.52;41.58;100914.55;84804;1326;22591;-73
2022/07/09 06:16:02;;;;;;;2.40;1.30;;;;;;;26.88;42.47;100918.17;84817;1323;22628;-73
2022/07/09 06:18:09;;;;;;;3.70;1.20;;;;;;;26.28;43.48;100917.30;84843;1325;22652;-73
2022/07/09 06:20:17;;;;;;;2.80;1.30;;;;;;;25.77;44.43;100919.16;84761;1325;22633;-73
2022/07/09 06:22:25;;;;;;;1.70;1.00;;;;;;;25.30;45.55;100917.15;84722;1326;22617;-72
2022/07/09 06:24:32;;;;;;;4.10;1.40;;;;;;;24.92;46.58;100915.08;84777;1322;25457;-73
2022/07/09 06:26:39;;;;;;;3.70;1.30;;;;;;;24.55;47.33;100918.57;84768;1325;22635;-73
2022/07/09 06:28:47;;;;;;;4.00;1.60;;;;;;;24.15;48.32;100918.63;84865;1326;22587;-73
2022/07/09 06:30:54;;;;;;;4.90;2.00;;;;;;;23.77;48.79;100921.48;84887;1318;24247;-73
2022/07/09 06:33:02;;;;;;;2.40;1.90;;;;;;;23.44;49.75;100916.64;84820;1326;22759;-73
2022/07/09 06:35:11;;;;;;;2.20;1.80;;;;;;;23.15;50.25;100914.40;84868;1326;22622;-73
2022/07/09 06:37:18;;;;;;;2.50;2.10;;;;;;;22.89;51.12;100915.63;84836;1327;25369;-72
2022/07/09 06:41:51;;;;;;;3.80;2.40;;;;;;;22.54;53.32;100920.53;84911;1328;22602;-72
2022/07/09 06:43:58;;;;;;;3.60;2.20;;;;;;;22.40;53.81;100919.88;84874;1326;25584;-72
2022/07/09 06:46:06;;;;;;;6.50;2.80;;;;;;;22.29;53.74;100918.79;84780;1326;22660;-72
2022/07/09 06:48:13;;;;;;;4.40;2.40;;;;;;;22.18;54.35;100915.39;84882;1329;24510;-72
2022/07/09 06:50:21;;;;;;;4.80;2.20;;;;;;;22.12;54.45;100913.33;84851;1325;22615;-72
2022/07/09 06:52:28;;;;;;;4.30;2.40;;;;;;;21.99;54.45;100914.89;84880;1323;22638;-72
2022/07/09 06:54:36;;;;;;;2.20;2.00;;;;;;;21.82;54.82;100909.77;84911;1326;22585;-72
2022/07/09 06:56:43;;;;;;;4.50;2.90;;;;;;;21.58;54.77;100907.16;84801;1326;22606;-72
2022/07/09 06:58:51;;;;;;;2.30;2.10;;;;;;;21.42;56.03;100898.95;84759;1325;22601;-72
2022/07/09 07:00:58;;;;;;;4.80;1.80;;;;;;;21.32;56.34;100899.20;84904;1327;22588;-72
2022/07/09 07:03:06;;;;;;;3.40;1.90;;;;;;;21.27;56.74;100899.52;84864;1325;22655;-72
2022/07/09 07:05:13;;;;;;;2.00;1.80;;;;;;;21.34;57.08;100894.27;84888;1325;22652;-72
2022/07/09 07:07:21;;;;;;;1.70;1.60;;;;;;;21.52;57.57;100895.71;84769;1326;25367;-72
2022/07/09 07:09:28;;;;;;;2.30;1.60;;;;;;;21.84;57.99;100897.23;84799;1322;22999;-71
2022/07/09 07:11:37;;;;;;;1.70;1.60;;;;;;;22.36;57.85;100897.08;84814;1326;22573;-72
2022/07/09 07:13:45;;;;;;;1.50;1.40;;;;;;;22.82;56.18;100890.92;84841;1325;25399;-72
2022/07/09 07:15:53;;;;;;;2.00;1.60;;;;;;;23.16;55.73;100890.66;84884;1326;25226;-72
2022/07/09 07:18:00;;;;;;;1.60;1.50;;;;;;;23.46;55.06;100887.41;84897;1324;22594;-73
2022/07/09 07:20:10;;;;;;;1.70;1.30;;;;;;;23.97;54.53;100888.50;84868;1325;22573;-73
2022/07/09 07:22:18;;;;;;;2.50;1.50;;;;;;;24.44;53.51;100884.36;84841;1325;22668;-73
2022/07/09 07:24:25;;;;;;;3.10;1.50;;;;;;;24.82;52.76;100884.03;84891;1322;22660;-73
2022/07/09 07:26:33;;;;;;;1.80;1.00;;;;;;;25.52;51.71;100878.40;84871;1326;22609;-73
2022/07/09 07:28:40;;;;;;;2.20;1.10;;;;;;;26.18;49.69;100877.68;84783;1327;22660;-73
2022/07/09 07:30:48;;;;;;;2.30;1.10;;;;;;;26.98;48.79;100874.08;84754;1327;22627;-73
2022/07/09 07:32:55;;;;;;;3.20;1.10;;;;;;;28.17;47.50;100869.60;84900;1328;22771;-72
2022/07/09 07:35:06;;;;;;;1.50;0.80;;;;;;;28.92;44.55;100866.58;84891;1325;22666;-72
2022/07/09 07:37:14;;;;;;;1.20;0.90;;;;;;;29.02;42.73;100867.46;84756;1322;22671;-72
2022/07/09 07:39:24;;;;;;;2.10;0.90;;;;;;;28.95;41.71;100864.74;84846;1324;24446;-72
2022/07/09 07:41:32;;;;;;;2.40;1.20;;;;;;;28.63;42.11;100864.42;84767;1326;22576;-72
2022/07/09 07:43:39;;;;;;;1.30;0.80;;;;;;;28.26;42.29;100863.36;84884;1327;22676;-73
2022/07/09 07:45:47;;;;;;;2.10;0.70;;;;;;;27.87;42.28;100868.12;84818;1321;25437;-73
2022/07/09 07:47:55;;;;;;;1.00;0.80;;;;;;;27.57;42.34;100863.64;84807;1324;22592;-73
2022/07/09 07:50:02;;;;;;;1.30;1.00;;;;;;;27.37;43.82;100863.75;84757;1324;22593;-72
2022/07/09 07:52:12;;;;;;;1.00;0.60;;;;;;;27.80;43.88;100864.34;84902;1326;24555;-72
2022/07/09 07:54:20;;;;;;;0.90;0.70;;;;;;;28.25;43.96;100860.34;84898;1326;22823;-73
2022/07/09 07:56:27;;;;;;;1.40;0.90;;;;;;;29.19;42.17;100854.59;84836;1324;22632;-72
2022/07/09 07:58:35;;;;;;;2.00;0.90;;;;;;;30.00;41.42;100852.10;84803;1326;22601;-72
2022/07/09 08:00:42;;;;;;;1.00;0.70;;;;;;;30.55;39.35;100845.37;84866;1326;22733;-72
2022/07/09 08:02:50;;;;;;;1.30;0.80;;;;;;;30.76;38.02;100843.48;84751;1326;22595;-72
2022/07/09 08:04:58;;;;;;;0.80;0.70;;;;;;;30.25;37.70;100843.54;84906;1326;22685;-72
2022/07/09 08:07:06;;;;;;;2.40;0.80;;;;;;;30.32;39.09;100841.15;84860;1327;22639;-73
2022/07/09 08:09:14;;;;;;;1.20;0.60;;;;;;;31.21;38.64;100834.81;84904;1326;22573;-73
2022/07/09 08:11:22;;;;;;;3.00;0.80;;;;;;;32.09;36.69;100834.64;84831;1325;22677;-73
2022/07/09 08:13:30;;;;;;;1.30;0.90;;;;;;;33.00;36.27;100833.38;84863;1326;22605;-73
2022/07/09 08:15:38;;;;;;;2.30;0.80;;;;;;;33.60;33.75;100831.53;84894;1326;22597;-73
2022/07/09 08:17:45;;;;;;;1.50;0.80;;;;;;;33.45;33.26;100829.88;84834;1321;22588;-73
2022/07/09 08:19:53;;;;;;;3.00;1.00;;;;;;;33.50;32.91;100835.16;84803;1321;22683;-73
2022/07/09 08:22:00;;;;;;;1.90;0.70;;;;;;;33.36;32.51;100837.58;84902;1324;25587;-73
2022/07/09 08:24:08;;;;;;;0.80;0.60;;;;;;;33.34;32.73;100834.77;84850;1326;22597;-73
2022/07/09 08:26:15;;;;;;;1.50;0.70;;;;;;;33.82;32.48;100833.73;84895;1322;22646;-73
2022/07/09 08:28:23;;;;;;;1.00;0.70;;;;;;;33.78;31.94;100832.41;84840;1324;22756;-73
2022/07/09 08:30:30;;;;;;;2.10;0.80;;;;;;;33.48;31.84;100828.51;84872;1329;22646;-73
2022/07/09 08:32:38;;;;;;;1.90;1.70;;;;;;;33.36;32.16;100820.59;84904;1327;22697;-73
2022/07/09 08:34:46;;;;;;;0.90;0.70;;;;;;;33.67;32.81;100823.89;84869;1325;22588;-73
2022/07/09 08:36:53;;;;;;;1.70;0.80;;;;;;;34.22;32.49;100819.67;84885;1321;24394;-73
2022/07/09 08:39:00;;;;;;;0.80;0.70;;;;;;;34.34;31.30;100817.67;84853;1326;24262;-73
2022/07/09 08:41:08;;;;;;;4.60;0.90;;;;;;;33.79;30.03;100814.41;84890;1324;22591;-73
2022/07/09 08:43:16;;;;;;;1.50;0.70;;;;;;;32.92;30.91;100814.86;84892;1324;22647;-73
2022/07/09 08:45:23;;;;;;;1.30;0.80;;;;;;;31.99;31.62;100816.15;84881;1324;22603;-73
2022/07/09 08:47:31;;;;;;;1.30;0.70;;;;;;;31.36;33.33;100811.77;84892;1325;22603;-73
2022/07/09 08:49:38;;;;;;;1.10;1.00;;;;;;;31.37;33.51;100814.94;84864;1326;22587;-73
2022/07/09 08:51:46;;;;;;;1.40;0.80;;;;;;;31.42;33.68;100810.73;84867;1324;22615;-74
2022/07/09 08:53:55;;;;;;;2.00;0.70;;;;;;;31.62;33.83;100806.10;84876;1325;22649;-73
2022/07/09 08:56:03;;;;;;;4.10;0.90;;;;;;;32.18;33.83;100796.20;84904;1326;25065;-74
2022/07/09 08:58:10;;;;;;;3.40;0.70;;;;;;;32.74;32.96;100796.71;84845;1325;22670;-73
2022/07/09 09:00:18;;;;;;;1.80;0.70;;;;;;;32.47;32.21;100796.45;84857;1321;22643;-73
2022/07/09 09:02:25;;;;;;;2.10;0.80;;;;;;;31.86;32.27;100791.65;84890;1326;22596;-73
2022/07/09 09:04:34;;;;;;;2.90;1.20;;;;;;;31.22;33.21;100797.73;84904;1327;22617;-73
2022/07/09 09:06:41;;;;;;;1.80;0.80;;;;;;;30.63;33.87;100796.29;84869;1329;22618;-73
2022/07/09 09:08:49;;;;;;;2.50;0.80;;;;;;;30.46;35.09;100793.08;84857;1327;24271;-73
2022/07/09 09:10:57;;;;;;;1.90;0.90;;;;;;;30.27;34.74;100798.21;84773;1326;25528;-72
2022/07/09 09:13:04;;;;;;;2.90;0.90;;;;;;;30.03;35.28;100793.70;84767;1326;22685;-72
2022/07/09 09:15:17;;;;;;;2.20;0.70;;;;;;;30.21;35.57;100786.66;84773;1326;22577;-72
2022/07/09 09:17:24;;;;;;;1.60;0.70;;;;;;;30.66;35.85;100782.30;84753;1318;25646;-72
2022/07/09 09:19:33;;;;;;;2.80;0.90;;;;;;;30.83;34.05;100781.05;84805;1322;22586;-73
2022/07/09 09:21:40;;;;;;;1.00;0.70;;;;;;;30.31;33.28;100780.98;84888;1321;22740;-73
2022/07/09 09:23:50;;;;;;;1.60;0.70;;;;;;;29.63;34.29;100786.01;84904;1327;22597;-72
2022/07/09 09:26:07;;;;;;;2.40;0.90;;;;;;;28.99;35.33;100781.80;84888;1327;22593;-73
2022/07/09 09:28:16;;;;;;;3.40;1.90;;;;;;;28.33;35.82;100785.96;84864;1327;22588;-72
2022/07/09 09:30:24;;;;;;;2.00;0.70;;;;;;;27.85;36.38;100782.77;84873;1326;22590;-73
2022/07/09 09:32:32;;;;;;;1.00;0.80;;;;;;;27.46;36.72;100781.04;84875;1318;22585;-72
2022/07/09 09:34:41;;;;;;;2.40;0.90;;;;;;;27.20;37.15;100779.28;84801;1325;22667;-74
2022/07/09 09:36:51;;;;;;;2.10;1.00;;;;;;;27.13;38.27;100777.06;84877;1325;22673;-72
2022/07/09 09:39:11;;;;;;;1.70;0.70;;;;;;;27.22;37.80;100777.44;84909;1327;25526;-72
2022/07/09 09:41:26;;;;;;;3.10;1.00;;;;;;;27.34;37.67;100778.61;84901;1325;22580;-72
2022/07/09 09:43:34;;;;;;;1.90;1.00;;;;;;;27.58;37.94;100774.63;84882;1327;24244;-73
2022/07/09 09:45:41;;;;;;;2.30;0.80;;;;;;;27.94;38.38;100770.16;84885;1329;25331;-73
2022/07/09 09:47:51;;;;;;;3.10;1.00;;;;;;;28.41;38.20;100763.42;84779;1324;24326;-73
2022/07/09 09:49:58;;;;;;;2.70;1.10;;;;;;;28.70;38.36;100765.10;84826;1324;22830;-73
2022/07/09 09:52:11;;;;;;;3.70;1.00;;;;;;;28.84;37.24;100762.24;84759;1326;22626;-74
2022/07/09 09:54:19;;;;;;;5.60;1.10;;;;;;;29.00;37.47;100763.48;84794;1324;22722;-74
2022/07/09 09:56:27;;;;;;;2.60;1.00;;;;;;;29.14;36.41;100766.42;84762;1325;22584;-74